Time;durP1;ratioP1;P1;durP2;ratioP2;P2;SDS_P1;SDS_P2;PMS_P1;PMS_P2;Temp;Humidity;BMP_temperature;BMP_pressure;BME280_temperature;BME280_humidity;BME280_pressure;Samples;Min_cycle;Max_cycle;Signal;HPM_P1;HPM_P2
2021/12/04 00:02:04;;;;;;;11.23;6.18;;;;;;;-3.42;80.22;99908.38;5090192;28;20327;-68
2021/12/04 00:04:35;;;;;;;12.50;5.70;;;;;;;-3.59;78.99;99895.94;5095144;28;20078;-68
2021/12/04 00:07:08;;;;;;;9.65;5.47;;;;;;;-3.68;79.04;99908.38;5098668;28;20115;-69
2021/12/04 00:09:38;;;;;;;12.82;5.50;;;;;;;-3.81;79.59;99898.53;5098800;28;20104;-69
2021/12/04 00:12:08;;;;;;;9.85;5.15;;;;;;;-3.86;79.90;99905.16;5098700;28;20055;-69
2021/12/04 00:14:37;;;;;;;;;;;;;;;-3.85;80.21;99901.78;5099107;28;20310;-69
2021/12/04 00:17:07;;;;;;;10.35;4.97;;;;;;;-4.11;80.10;99858.34;5098479;28;19935;-69
2021/12/04 00:19:36;;;;;;;8.70;5.10;;;;;;;-3.88;80.22;99897.44;5098527;28;20050;-69
2021/12/04 00:22:06;;;;;;;12.00;5.35;;;;;;;-3.78;80.48;99919.06;5098280;28;20238;-69
2021/12/04 00:24:35;;;;;;;11.27;5.25;;;;;;;-3.83;80.62;99895.06;5097756;28;20086;-69
2021/12/04 00:27:04;;;;;;;11.85;5.45;;;;;;;-3.62;80.50;99911.16;5098338;28;20052;-67
2021/12/04 00:29:33;;;;;;;7.85;4.82;;;;;;;-3.50;79.40;99921.75;5098341;28;20040;-68
2021/12/04 00:32:09;;;;;;;9.93;4.88;;;;;;;-3.49;79.42;99920.97;5098130;28;20525;-67
2021/12/04 00:34:41;;;;;;;14.50;5.63;;;;;;;-3.39;79.13;99916.19;5097747;28;20119;-67
2021/12/04 00:51:09;;;;;;;12.10;6.07;;;;;;;-3.11;78.76;99906.03;5097118;28;20044;-69
2021/12/04 00:53:40;;;;;;;7.45;4.25;;;;;;;-3.28;78.30;99902.91;5098002;28;20048;-68
2021/12/04 00:56:09;;;;;;;10.30;5.70;;;;;;;-3.17;78.59;99910.97;5097928;28;20528;-68
2021/12/04 00:58:38;;;;;;;10.32;5.32;;;;;;;-3.12;78.18;99899.22;5097930;28;20505;-69
2021/12/04 01:01:07;;;;;;;11.15;5.40;;;;;;;-3.17;77.94;99880.28;5097877;28;20109;-68
2021/12/04 01:03:36;;;;;;;11.10;5.25;;;;;;;-2.88;78.13;99904.22;5097889;28;20044;-68
2021/12/04 01:06:07;;;;;;;9.25;5.68;;;;;;;-2.85;78.05;99908.56;5097687;28;20044;-68
2021/12/04 01:08:35;;;;;;;12.77;5.90;;;;;;;-2.77;78.30;99902.03;5097672;28;20111;-68
2021/12/04 01:11:07;;;;;;;7.38;4.88;;;;;;;-2.74;77.42;99891.88;5097614;28;20083;-67
2021/12/04 01:13:37;;;;;;;11.57;5.82;;;;;;;-2.82;77.97;99872.88;5097605;28;20051;-68
2021/12/04 01:16:07;;;;;;;12.60;5.40;;;;;;;-2.93;78.43;99884.44;5097696;28;20111;-67
2021/12/04 01:18:35;;;;;;;12.27;6.40;;;;;;;-3.01;78.62;99875.69;5097660;28;20044;-67
2021/12/04 01:21:04;;;;;;;9.63;5.57;;;;;;;-3.07;78.88;99859.31;5097460;28;20044;-67
2021/12/04 01:23:33;;;;;;;10.18;5.13;;;;;;;-3.09;78.70;99871.19;5097531;28;20490;-67
2021/12/04 01:26:02;;;;;;;11.10;6.05;;;;;;;-3.11;79.26;99860.03;5097235;28;20259;-67
2021/12/04 01:28:32;;;;;;;9.23;4.93;;;;;;;-2.83;78.96;99863.47;5097384;28;20107;-67
2021/12/04 01:31:01;;;;;;;9.27;5.32;;;;;;;-2.76;78.25;99847.47;5097411;28;20048;-67
2021/12/04 01:33:29;;;;;;;11.02;5.00;;;;;;;-2.62;77.71;99846.22;5097454;28;20040;-67
2021/12/04 01:35:58;;;;;;;10.65;4.50;;;;;;;-2.42;77.55;99848.47;5092025;28;20111;-67
2021/12/04 01:38:27;;;;;;;10.63;4.93;;;;;;;-2.69;77.31;99803.38;5089659;28;20044;-67
2021/12/04 01:40:56;;;;;;;11.38;5.50;;;;;;;-2.26;77.75;99845.53;5079763;28;20087;-67
2021/12/04 01:43:24;;;;;;;11.90;5.90;;;;;;;-2.37;77.51;99831.59;5077928;28;20086;-68
2021/12/04 01:45:57;;;;;;;8.82;5.40;;;;;;;-2.48;77.99;99832.97;5087143;28;20060;-68
2021/12/04 01:48:26;;;;;;;11.15;5.47;;;;;;;-2.63;78.61;99849.56;5082781;28;20107;-67
2021/12/04 01:50:56;;;;;;;14.77;5.38;;;;;;;-2.85;79.35;99848.06;5081403;28;20112;-69
2021/12/04 01:53:25;;;;;;;10.10;5.20;;;;;;;-2.88;79.26;99857.34;5096915;28;20339;-69
2021/12/04 01:55:55;;;;;;;8.65;5.50;;;;;;;-2.94;79.98;99857.16;5097540;28;20119;-67
2021/12/04 01:58:25;;;;;;;11.88;6.40;;;;;;;-2.82;79.82;99852.44;5081016;28;20112;-70
2021/12/04 02:00:54;;;;;;;14.32;6.28;;;;;;;-2.92;79.83;99840.16;5100591;28;20078;-70
2021/12/04 02:03:24;;;;;;;14.77;7.03;;;;;;;-2.83;79.90;99850.66;5101213;28;20119;-69
2021/12/04 02:05:53;;;;;;;16.00;7.07;;;;;;;-2.96;80.06;99848.56;5101243;28;20111;-69
2021/12/04 02:08:23;;;;;;;11.35;6.53;;;;;;;-2.94;80.43;99859.72;5100917;28;20238;-69
2021/12/04 02:10:54;;;;;;;10.52;4.88;;;;;;;-3.07;80.17;99841.44;5101105;28;20075;-69
2021/12/04 02:13:23;;;;;;;9.85;5.25;;;;;;;-3.21;80.51;99841.81;5101009;28;20342;-68
2021/12/04 02:15:53;;;;;;;14.00;6.57;;;;;;;-3.03;80.27;99857.72;5081544;28;20040;-68
2021/12/04 02:18:24;;;;;;;9.38;5.25;;;;;;;-3.07;80.34;99856.78;5080594;28;20335;-69
2021/12/04 02:20:54;;;;;;;11.18;5.75;;;;;;;-3.12;79.85;99822.53;5080584;28;20055;-68
2021/12/04 02:23:23;;;;;;;8.48;4.63;;;;;;;-2.93;80.05;99846.09;5080462;28;20195;-69
2021/12/04 02:25:52;;;;;;;13.27;6.40;;;;;;;-2.86;80.03;99840.34;5080322;28;20248;-70
2021/12/04 02:28:20;;;;;;;12.20;5.95;;;;;;;-2.85;80.13;99836.97;5080246;28;20087;-70
2021/12/04 02:30:49;;;;;;;7.60;4.93;;;;;;;-2.88;79.57;99831.75;5086790;28;20327;-69
2021/12/04 02:33:18;;;;;;;12.60;6.15;;;;;;;-2.91;80.09;99837.66;5100608;28;20051;-70
2021/12/04 02:35:49;;;;;;;11.00;6.13;;;;;;;-2.91;80.42;99829.13;5100536;28;20075;-70
2021/12/04 02:38:22;;;;;;;9.50;5.72;;;;;;;-3.03;80.40;99817.69;5100572;28;20044;-68
2021/12/04 02:40:52;;;;;;;10.75;5.47;;;;;;;-2.94;80.56;99827.34;5100350;28;20065;-70
2021/12/04 02:43:20;;;;;;;12.10;6.32;;;;;;;-2.87;80.51;99831.81;5100425;28;20377;-69
2021/12/04 02:45:49;;;;;;;10.10;5.40;;;;;;;-2.89;80.99;99836.03;5100378;28;20234;-67
2021/12/04 02:48:19;;;;;;;12.38;6.75;;;;;;;-2.93;81.21;99823.09;5088133;28;20410;-69
2021/12/04 02:50:48;;;;;;;14.57;6.00;;;;;;;-2.90;81.51;99828.28;5080062;28;20044;-68
2021/12/04 02:53:17;;;;;;;10.63;6.13;;;;;;;-2.90;81.52;99841.06;5085040;28;20044;-70
2021/12/04 02:55:47;;;;;;;14.43;6.65;;;;;;;-2.98;81.71;99825.50;5100167;28;20084;-70
2021/12/04 02:58:16;;;;;;;11.90;5.75;;;;;;;-3.01;82.22;99814.34;5099626;28;20052;-70
2021/12/04 03:00:49;;;;;;;12.38;6.20;;;;;;;-3.09;82.30;99807.28;5088561;28;20377;-69
2021/12/04 03:03:20;;;;;;;10.48;5.22;;;;;;;-3.10;83.05;99820.88;5079770;28;20036;-69
2021/12/04 03:05:50;;;;;;;11.15;5.18;;;;;;;-3.12;83.10;99835.31;5079730;28;20049;-69
2021/12/04 03:08:19;;;;;;;13.27;5.43;;;;;;;-3.27;83.09;99842.47;5079374;28;20094;-69
2021/12/04 03:10:50;;;;;;;8.95;5.22;;;;;;;-3.22;83.23;99835.84;5079519;28;20076;-67
2021/12/04 03:13:20;;;;;;;8.30;5.00;;;;;;;-3.36;83.22;99826.84;5079473;28;20048;-68
2021/12/04 03:15:57;;;;;;;8.93;4.88;;;;;;;-3.44;83.69;99835.94;5079528;28;20048;-67
2021/12/04 03:18:25;;;;;;;11.30;4.97;;;;;;;-3.53;83.57;99834.81;5079497;28;20112;-67
2021/12/04 03:20:55;;;;;;;12.05;5.72;;;;;;;-3.59;84.40;99834.63;5087793;28;20257;-68
2021/12/04 03:23:29;;;;;;;10.23;5.10;;;;;;;-3.47;84.04;99835.03;5099624;28;20108;-69
2021/12/04 03:26:00;;;;;;;8.52;4.28;;;;;;;-3.44;84.04;99828.28;5099373;28;20305;-67
2021/12/04 03:28:29;;;;;;;6.20;3.75;;;;;;;-3.45;83.65;99831.66;5099636;28;20111;-68
2021/12/04 03:31:03;;;;;;;10.77;4.63;;;;;;;-3.33;82.75;99839.72;5099312;28;20044;-68
2021/12/04 03:41:49;;;;;;;10.52;5.60;;;;;;;-3.42;82.80;99821.53;5089829;28;20059;-68
2021/12/04 03:44:17;;;;;;;12.18;5.65;;;;;;;-3.42;82.21;99836.84;5079023;28;20055;-67
2021/12/04 03:46:48;;;;;;;7.03;4.93;;;;;;;-3.54;81.78;99822.88;5078688;28;20050;-66
2021/12/04 03:49:16;;;;;;;14.10;6.05;;;;;;;-3.51;82.15;99838.31;5078915;28;20057;-67
2021/12/04 03:51:45;;;;;;;12.48;6.32;;;;;;;-3.58;82.48;99836.34;5078839;28;20138;-67
2021/12/04 03:54:13;;;;;;;11.68;5.53;;;;;;;-3.64;82.17;99825.94;5084627;28;20051;-66
2021/12/04 03:56:42;;;;;;;12.13;5.93;;;;;;;-3.53;81.96;99834.81;5082932;28;20056;-66
2021/12/04 03:59:12;;;;;;;16.75;6.68;;;;;;;-3.68;82.06;99813.88;5078475;28;20285;-67
2021/12/04 04:01:41;;;;;;;11.75;5.40;;;;;;;-3.65;82.37;99831.84;5078529;28;20051;-67
2021/12/04 04:04:10;;;;;;;13.13;6.13;;;;;;;-3.64;82.43;99831.06;5078584;28;20331;-66
2021/12/04 04:06:38;;;;;;;11.15;6.40;;;;;;;-3.60;82.24;99838.00;5078072;28;20036;-67
2021/12/04 04:09:07;;;;;;;12.57;6.03;;;;;;;-3.77;82.36;99818.69;5088701;28;20048;-68
2021/12/04 04:11:36;;;;;;;12.02;4.85;;;;;;;-3.72;82.67;99835.00;5078697;28;20049;-68
2021/12/04 04:14:05;;;;;;;11.80;6.38;;;;;;;-3.86;82.92;99810.72;5080175;28;20342;-68
2021/12/04 04:16:39;;;;;;;11.15;5.32;;;;;;;-3.78;82.85;99837.38;5087610;28;20327;-69
2021/12/04 04:19:08;;;;;;;11.75;6.00;;;;;;;-3.79;82.84;99835.66;5078238;28;20366;-68
2021/12/04 04:21:41;;;;;;;11.30;4.45;;;;;;;-3.79;82.64;99825.44;5078346;28;20323;-69
2021/12/04 04:24:11;;;;;;;10.20;5.45;;;;;;;-3.76;82.94;99838.31;5077951;28;20082;-68
2021/12/04 04:26:42;;;;;;;10.90;5.80;;;;;;;-3.80;82.65;99823.69;5077942;28;20048;-68
2021/12/04 04:29:10;;;;;;;;;;;;;;;-3.82;82.81;99832.97;5078645;28;20266;-68
2021/12/04 04:31:45;;;;;;;7.93;4.50;;;;;;;-3.83;82.81;99815.94;5087823;28;19924;-66
2021/12/04 04:34:20;;;;;;;12.60;4.32;;;;;;;-3.92;82.96;99824.13;5077523;28;20044;-68
2021/12/04 04:37:06;;;;;;;7.65;4.35;;;;;;;-3.94;83.13;99826.66;5077850;28;20331;-68
2021/12/04 04:59:04;;;;;;;5.90;3.40;;;;;;;-4.09;82.89;99841.41;5077913;28;20098;-68
2021/12/04 05:01:57;;;;;;;7.13;4.75;;;;;;;-4.14;82.91;99848.03;5077633;28;20116;-69
2021/12/04 05:12:54;;;;;;;8.52;4.25;;;;;;;-4.27;83.79;99866.25;5083166;28;20107;-67
2021/12/04 05:15:35;;;;;;;7.88;4.82;;;;;;;-4.36;84.21;99849.81;5084109;28;20225;-68
2021/12/04 05:18:16;;;;;;;9.15;4.50;;;;;;;-4.32;84.30;99875.41;5077450;28;20059;-67
2021/12/04 05:20:52;;;;;;;8.55;5.00;;;;;;;-4.31;84.14;99884.84;5079617;28;20378;-68
2021/12/04 05:23:21;;;;;;;9.85;4.93;;;;;;;-4.40;83.65;99878.56;5090173;28;20044;-67
2021/12/04 05:25:50;;;;;;;7.15;4.13;;;;;;;-4.42;84.06;99867.44;5078225;28;20359;-67
2021/12/04 05:28:19;;;;;;;8.40;3.97;;;;;;;-4.35;83.54;99879.59;5079201;28;20052;-68
2021/12/04 05:30:47;;;;;;;10.07;4.43;;;;;;;-4.38;82.78;99879.47;5087164;28;20058;-67
2021/12/04 05:33:16;;;;;;;11.68;4.38;;;;;;;-4.46;82.61;99870.69;5082711;28;20108;-67
2021/12/04 05:35:48;;;;;;;6.28;4.00;;;;;;;-4.51;82.05;99856.91;5083450;28;20050;-67
2021/12/04 05:38:17;;;;;;;12.50;5.10;;;;;;;-4.38;82.14;99884.59;5087659;28;20044;-69
2021/12/04 05:40:46;;;;;;;9.82;4.57;;;;;;;-4.30;82.29;99889.97;5088102;28;20055;-67
2021/12/04 05:43:16;;;;;;;10.73;3.55;;;;;;;-4.46;81.72;99870.69;5077007;28;20075;-68
2021/12/04 05:45:48;;;;;;;7.45;4.18;;;;;;;-4.38;81.80;99894.78;5077018;28;20052;-68
2021/12/04 05:48:20;;;;;;;8.00;4.30;;;;;;;-4.54;81.63;99869.53;5080824;28;20044;-67
2021/12/04 05:53:43;;;;;;;6.57;3.95;;;;;;;-4.45;80.98;99902.16;5077111;28;20109;-68
2021/12/04 05:56:12;;;;;;;10.70;4.30;;;;;;;-4.45;81.24;99907.25;5077061;28;20051;-68
2021/12/04 05:58:40;;;;;;;7.82;4.20;;;;;;;-4.47;81.62;99912.28;5077160;28;20067;-68
2021/12/04 06:01:09;;;;;;;11.65;4.75;;;;;;;-4.51;81.52;99907.91;5078181;28;20044;-69
2021/12/04 06:03:38;;;;;;;11.48;4.65;;;;;;;-4.66;80.93;99899.66;5077281;28;20051;-68
2021/12/04 06:06:08;;;;;;;7.90;4.30;;;;;;;-4.61;81.78;99910.91;5077081;28;20107;-68
2021/12/04 06:08:37;;;;;;;8.05;3.38;;;;;;;-4.61;82.18;99916.00;5082957;28;20197;-68
2021/12/04 06:11:06;;;;;;;7.63;4.15;;;;;;;-4.71;82.09;99913.91;5097100;28;20056;-68
2021/12/04 06:13:35;;;;;;;5.97;3.95;;;;;;;-4.83;82.39;99904.97;5097065;28;20051;-67
2021/12/04 06:16:03;;;;;;;8.68;4.57;;;;;;;-4.79;82.48;99917.03;5097081;28;20348;-68
2021/12/04 06:18:33;;;;;;;13.38;4.90;;;;;;;-4.87;83.01;99915.84;5088043;28;20044;-69
2021/12/04 06:23:49;;;;;;;8.25;4.15;;;;;;;-4.93;83.77;99928.34;5097279;28;20300;-69
2021/12/04 06:26:17;;;;;;;7.25;4.50;;;;;;;-4.91;83.89;99931.81;5097070;28;20067;-69
2021/12/04 06:28:46;;;;;;;11.98;5.07;;;;;;;-4.85;84.09;99932.06;5093197;28;20060;-69
2021/12/04 06:31:15;;;;;;;11.35;4.97;;;;;;;-4.98;84.31;99914.56;5085447;28;20350;-69
2021/12/04 06:33:43;;;;;;;13.60;5.25;;;;;;;-4.90;84.37;99938.66;5079559;28;20128;-69
2021/12/04 06:36:12;;;;;;;6.38;4.00;;;;;;;-4.98;84.68;99929.84;5080509;28;20294;-69
2021/12/04 06:38:41;;;;;;;8.10;4.95;;;;;;;-5.09;84.74;99925.97;5080214;28;20048;-69
2021/12/04 06:41:11;;;;;;;13.40;4.93;;;;;;;-5.05;85.46;99933.81;5080311;28;20108;-69
2021/12/04 06:43:45;;;;;;;12.13;4.85;;;;;;;-5.23;85.46;99916.09;5080390;28;20044;-69
2021/12/04 06:46:14;;;;;;;12.02;5.55;;;;;;;-5.16;85.05;99935.06;5080478;28;20051;-69
2021/12/04 06:48:44;;;;;;;9.85;3.45;;;;;;;-5.20;84.92;99939.13;5081019;28;20048;-69
2021/12/04 06:51:22;;;;;;;8.18;4.30;;;;;;;-5.24;84.93;99937.28;5046908;28;20068;-68
2021/12/04 06:53:56;;;;;;;13.40;4.03;;;;;;;-5.31;84.64;99937.84;5045130;28;20141;-69
2021/12/04 06:56:32;;;;;;;9.00;4.63;;;;;;;-5.40;84.60;99929.81;5044891;28;20310;-69
2021/12/04 06:59:03;;;;;;;11.02;4.20;;;;;;;-5.28;84.99;99945.59;5045151;28;20389;-69
2021/12/04 07:01:32;;;;;;;11.55;5.57;;;;;;;-5.37;84.94;99945.22;5043152;28;20056;-68
2021/12/04 07:04:01;;;;;;;7.95;4.55;;;;;;;-5.35;84.85;99953.78;5041876;28;20057;-68
2021/12/04 07:06:29;;;;;;;10.57;4.80;;;;;;;-5.47;84.86;99954.13;5044407;28;20271;-69
2021/12/04 07:08:58;;;;;;;7.63;4.18;;;;;;;-5.35;84.99;99976.72;5043295;28;20068;-68
2021/12/04 07:11:28;;;;;;;6.70;4.78;;;;;;;-5.80;84.79;99897.56;5046011;28;20049;-68
2021/12/04 07:13:57;;;;;;;10.95;5.05;;;;;;;-5.34;84.74;99975.03;5045729;28;20072;-68
2021/12/04 07:16:26;;;;;;;15.15;5.20;;;;;;;-5.45;84.41;99967.81;5045644;28;20049;-69
2021/12/04 07:18:55;;;;;;;8.10;4.55;;;;;;;-5.43;84.71;99981.47;5042993;28;20159;-68
2021/12/04 07:21:24;;;;;;;12.00;4.97;;;;;;;-5.58;84.96;99964.69;5043647;28;20049;-68
2021/12/04 07:23:53;;;;;;;13.77;5.10;;;;;;;-5.56;84.80;99969.03;5044767;28;20072;-69
2021/12/04 07:26:22;;;;;;;9.95;5.10;;;;;;;-5.48;84.67;99985.50;5046981;28;20053;-68
2021/12/04 07:28:52;;;;;;;11.40;5.45;;;;;;;-5.46;85.00;100005.94;5038654;28;20063;-69
2021/12/04 07:31:20;;;;;;;10.32;5.15;;;;;;;-5.48;85.05;100002.47;5045835;28;20049;-68
2021/12/04 07:33:50;;;;;;;12.82;6.63;;;;;;;-5.60;84.92;99987.50;5044394;28;20255;-68
2021/12/04 07:36:19;;;;;;;8.68;4.35;;;;;;;-5.54;85.35;100003.06;5044817;28;20049;-68
2021/12/04 07:38:48;;;;;;;10.73;4.85;;;;;;;-5.55;85.03;100010.63;5042438;28;20083;-68
2021/12/04 07:41:18;;;;;;;11.38;5.72;;;;;;;-5.53;85.37;100006.47;5045429;28;20064;-68
2021/12/04 07:43:46;;;;;;;8.18;4.95;;;;;;;-5.63;85.21;99992.47;5045464;28;20117;-69
2021/12/04 07:46:17;;;;;;;10.27;4.45;;;;;;;-5.56;85.15;100009.75;5043832;28;20045;-68
2021/12/04 07:48:46;;;;;;;13.27;5.43;;;;;;;-5.66;84.97;100003.41;5042564;28;20161;-69
2021/12/04 07:51:17;;;;;;;22.10;6.85;;;;;;;-5.60;85.04;100012.97;5045230;28;20128;-68
2021/12/04 07:53:47;;;;;;;17.33;6.78;;;;;;;-5.56;85.01;100034.34;5045078;28;20069;-68
2021/12/04 07:56:16;;;;;;;39.65;11.85;;;;;;;-5.88;84.86;99985.44;5045030;28;20032;-68
2021/12/04 07:58:45;;;;;;;27.60;10.32;;;;;;;-5.68;84.48;100025.34;5042761;28;20060;-68
2021/12/04 08:01:16;;;;;;;24.58;10.35;;;;;;;-5.59;84.40;100034.19;5045536;28;20077;-68
2021/12/04 08:03:44;;;;;;;34.47;12.50;;;;;;;-5.63;84.37;100036.59;5042082;28;20049;-68
2021/12/04 08:06:13;;;;;;;33.03;11.60;;;;;;;-5.68;84.75;100030.44;5040532;28;20112;-68
2021/12/04 08:08:43;;;;;;;28.83;11.05;;;;;;;-5.72;84.64;100028.56;5041809;28;20053;-67
2021/12/04 08:11:11;;;;;;;17.85;8.00;;;;;;;-5.67;84.84;100037.25;5040455;28;20603;-68
2021/12/04 08:13:40;;;;;;;14.85;6.15;;;;;;;-5.72;84.74;100038.72;5036796;28;20359;-68
2021/12/04 08:16:09;;;;;;;15.52;7.15;;;;;;;-6.23;85.17;99956.75;5017798;28;20287;-68
2021/12/04 08:18:39;;;;;;;15.70;6.90;;;;;;;-5.71;84.89;100045.59;5021059;28;20283;-67
2021/12/04 08:21:08;;;;;;;14.07;7.72;;;;;;;-5.71;84.92;100058.31;5023154;28;20060;-67
2021/12/04 08:23:37;;;;;;;19.35;9.50;;;;;;;-5.71;84.94;100060.84;5044103;28;20112;-67
2021/12/04 08:26:05;;;;;;;18.83;8.05;;;;;;;-5.73;84.99;100067.53;5044231;28;20070;-67
2021/12/04 08:28:34;;;;;;;13.30;7.55;;;;;;;-5.72;85.34;100069.28;5044222;28;20057;-67
2021/12/04 08:31:03;;;;;;;14.35;7.10;;;;;;;-5.75;85.45;100058.09;5044532;28;20112;-67
2021/12/04 08:33:33;;;;;;;12.32;6.63;;;;;;;-5.76;85.91;100059.78;5043630;28;20136;-68
2021/12/04 08:36:04;;;;;;;15.27;7.43;;;;;;;-5.78;86.37;100063.91;5044178;28;20075;-67
2021/12/04 08:38:35;;;;;;;13.77;7.75;;;;;;;-5.77;86.37;100070.75;5044263;28;20255;-67
2021/12/04 08:41:05;;;;;;;13.38;6.18;;;;;;;-5.84;86.66;100063.66;5043686;28;20090;-67
2021/12/04 08:43:34;;;;;;;14.52;5.68;;;;;;;-5.84;86.53;100081.47;5042700;28;20975;-67
2021/12/04 08:46:03;;;;;;;11.52;5.72;;;;;;;-5.87;86.63;100083.84;5043802;28;20048;-67
2021/12/04 08:48:33;;;;;;;8.88;4.88;;;;;;;-5.96;86.37;100078.38;5043934;28;20073;-67
2021/12/04 08:51:05;;;;;;;11.15;5.32;;;;;;;-5.93;86.50;100084.44;5041743;28;20045;-67
2021/12/04 08:53:33;;;;;;;7.15;4.53;;;;;;;-6.05;86.81;100077.94;5043712;28;20128;-67
2021/12/04 08:56:02;;;;;;;12.18;4.50;;;;;;;-6.05;86.46;100089.00;5042760;28;20049;-68
2021/12/04 08:58:32;;;;;;;4.50;2.45;;;;;;;-6.11;86.36;100084.50;5043996;28;20053;-67
2021/12/04 09:01:04;;;;;;;8.95;4.75;;;;;;;-6.09;86.35;100092.16;5042504;28;20628;-67
2021/12/04 09:03:36;;;;;;;9.30;4.88;;;;;;;-6.13;86.49;100103.88;5039732;28;20056;-67
2021/12/04 09:06:07;;;;;;;8.23;4.72;;;;;;;-6.14;86.60;100097.06;5040410;28;20159;-66
2021/12/04 09:08:36;;;;;;;7.40;4.68;;;;;;;-6.22;86.71;100105.97;5039180;28;20084;-67
2021/12/04 09:11:08;;;;;;;7.55;4.90;;;;;;;-6.24;86.79;100117.78;5042054;28;20121;-66
2021/12/04 09:13:37;;;;;;;7.80;4.10;;;;;;;-6.27;86.75;100122.69;5043327;28;20243;-67
2021/12/04 09:16:07;;;;;;;15.07;4.03;;;;;;;-6.37;85.92;100120.50;5042993;28;20053;-68
2021/12/04 09:18:36;;;;;;;10.68;3.78;;;;;;;-6.43;85.31;100107.50;5043445;28;20379;-68
2021/12/04 09:21:10;;;;;;;7.38;4.55;;;;;;;-6.49;84.83;100119.91;5042473;28;20079;-68
2021/12/04 09:23:40;;;;;;;6.03;3.20;;;;;;;-6.70;85.34;100104.47;5043175;28;20278;-67
2021/12/04 09:26:13;;;;;;;6.32;4.40;;;;;;;-6.73;85.13;100106.06;5025808;28;20236;-67
2021/12/04 09:28:49;;;;;;;11.60;4.88;;;;;;;-6.64;85.26;100131.06;5043704;28;20076;-67
2021/12/04 09:34:22;;;;;;;10.90;5.15;;;;;;;-6.59;85.16;100155.03;5043027;28;20235;-67
2021/12/04 10:02:09;;;;;;;6.47;3.33;;;;;;;-7.16;81.75;100189.34;5007770;28;20049;-66
2021/12/04 10:05:10;;;;;;;5.07;3.30;;;;;;;-7.17;81.88;100187.59;5040026;28;20083;-66
2021/12/04 10:13:34;;;;;;;19.20;7.00;;;;;;;-7.24;80.41;100185.50;5046354;28;20051;-67
2021/12/04 10:16:23;;;;;;;10.43;5.05;;;;;;;-7.22;78.41;100199.16;5045213;28;20374;-66
2021/12/04 10:24:45;;;;;;;25.17;7.63;;;;;;;-7.22;77.27;100214.41;5043670;28;20049;-66
2021/12/04 10:33:14;;;;;;;27.48;7.55;;;;;;;-7.29;75.00;100238.56;5046801;28;20055;-66
2021/12/04 10:35:43;;;;;;;35.63;8.18;;;;;;;-7.50;73.34;100223.06;5046464;28;20045;-66
2021/12/04 10:38:19;;;;;;;33.38;7.65;;;;;;;-7.42;73.01;100251.38;5046386;28;20056;-66
2021/12/04 10:40:50;;;;;;;52.60;9.63;;;;;;;-7.55;72.51;100243.91;5046186;28;20049;-67
2021/12/04 10:43:22;;;;;;;7.80;3.53;;;;;;;-7.49;70.94;100269.59;5046053;28;20053;-66
2021/12/04 10:45:54;;;;;;;22.48;6.50;;;;;;;-7.58;70.82;100269.97;5044493;28;20092;-66
2021/12/04 10:48:29;;;;;;;49.83;10.93;;;;;;;-7.59;71.18;100283.44;5044612;28;20523;-66
2021/12/04 10:51:03;;;;;;;48.80;11.88;;;;;;;-7.65;70.20;100291.59;5037267;28;20108;-66
2021/12/04 10:53:36;;;;;;;43.25;9.80;;;;;;;-7.74;70.68;100290.19;5044426;28;20041;-66
2021/12/04 10:56:22;;;;;;;44.25;12.15;;;;;;;-7.75;70.55;100301.13;5008128;28;20072;-66
2021/12/04 11:02:06;;;;;;;25.17;7.75;;;;;;;-7.91;70.20;100305.34;4984797;28;20050;-66
2021/12/04 11:04:42;;;;;;;17.42;5.90;;;;;;;-7.94;68.91;100305.13;5055877;28;20044;-66
2021/12/04 11:18:50;;;;;;;17.92;6.93;;;;;;;-8.18;70.09;100344.28;5063629;28;20114;-66
2021/12/04 11:24:51;;;;;;;8.60;3.47;;;;;;;-8.30;70.06;100345.28;5064673;28;20054;-66
2021/12/04 11:27:35;;;;;;;7.75;3.25;;;;;;;-8.35;70.24;100349.22;5064890;28;20112;-65
2021/12/04 11:38:43;;;;;;;3.55;2.47;;;;;;;-8.63;70.20;100353.44;5065189;28;20118;-66
2021/12/04 11:44:01;;;;;;;12.13;4.30;;;;;;;-8.63;69.80;100373.69;5062067;28;20037;-65
2021/12/04 11:46:43;;;;;;;26.35;7.75;;;;;;;-8.81;69.94;100354.06;5046698;28;20140;-65
2021/12/04 11:49:18;;;;;;;18.65;6.05;;;;;;;-8.78;69.98;100384.63;5064908;28;20048;-66
2021/12/04 11:51:57;;;;;;;16.52;4.32;;;;;;;-8.89;70.20;100375.47;5065135;28;20045;-66
2021/12/04 11:54:28;;;;;;;16.30;5.50;;;;;;;-8.94;70.25;100376.84;5065248;28;20052;-66
2021/12/04 11:57:06;;;;;;;9.60;3.38;;;;;;;-8.90;70.13;100383.84;5065178;28;20041;-65
2021/12/04 11:59:38;;;;;;;7.93;4.28;;;;;;;-8.92;70.38;100380.34;5064344;28;20052;-65
2021/12/04 12:02:09;;;;;;;7.68;3.40;;;;;;;-8.88;70.13;100407.63;5063716;28;20061;-65
2021/12/04 12:04:41;;;;;;;6.55;3.58;;;;;;;-9.00;70.55;100389.13;5064815;28;20049;-66
2021/12/04 12:07:18;;;;;;;4.63;3.00;;;;;;;-8.88;70.13;100422.81;5064793;28;20049;-65
2021/12/04 12:09:49;;;;;;;5.90;3.72;;;;;;;-8.99;70.48;100418.72;5063850;28;20076;-66
2021/12/04 12:12:19;;;;;;;7.72;4.38;;;;;;;-9.12;70.26;100392.59;5064643;28;20354;-65
2021/12/04 12:14:53;;;;;;;9.60;4.03;;;;;;;-9.08;70.39;100407.97;5064861;28;20313;-65
2021/12/04 12:17:32;;;;;;;6.90;3.17;;;;;;;-9.12;70.19;100412.84;5063217;28;20047;-65
2021/12/04 12:20:04;;;;;;;3.65;2.60;;;;;;;-9.23;70.11;100403.72;5062755;28;20056;-65
2021/12/04 12:22:38;;;;;;;4.60;2.90;;;;;;;-9.23;70.57;100421.44;5063910;28;20047;-65
2021/12/04 12:25:21;;;;;;;6.30;3.17;;;;;;;-9.30;70.35;100429.41;5064582;28;20090;-66
2021/12/04 12:31:46;;;;;;;6.05;3.10;;;;;;;-9.39;70.60;100441.44;5064776;28;20297;-66
2021/12/04 12:33:41;;;;;;;11.23;3.38;;;;;;;-9.62;70.38;100430.69;5064119;28;20056;-65
2021/12/04 12:36:12;;;;;;;7.90;3.33;;;;;;;-9.69;70.84;100441.16;5064405;28;20056;-65
2021/12/04 12:38:47;;;;;;;9.05;4.03;;;;;;;-9.74;70.76;100445.03;5063871;28;20347;-65
2021/12/04 12:41:23;;;;;;;7.72;3.83;;;;;;;-9.84;70.66;100435.06;5063858;28;20395;-65
2021/12/04 12:43:59;;;;;;;12.93;4.50;;;;;;;-10.02;70.43;100420.41;5064467;28;20049;-65
2021/12/04 12:46:37;;;;;;;15.60;5.70;;;;;;;-10.03;70.72;100418.69;5064168;28;20052;-65
2021/12/04 12:49:17;;;;;;;13.80;5.35;;;;;;;-9.96;70.89;100445.22;5064093;28;20088;-64
2021/12/04 12:51:53;;;;;;;;;;;;;;;-9.98;70.73;100457.78;5063056;28;20053;-65
2021/12/04 12:54:27;;;;;;;8.20;3.80;;;;;;;-10.09;70.49;100438.47;5064027;28;19963;-66
2021/12/04 12:57:09;;;;;;;6.43;3.00;;;;;;;-10.23;70.91;100444.25;5053964;28;20061;-66
2021/12/04 13:00:00;;;;;;;6.53;3.30;;;;;;;-10.25;70.61;100448.31;5063633;28;20291;-66
2021/12/04 13:13:55;;;;;;;16.45;8.38;;;;;;;-11.30;72.40;100455.19;5063984;28;20056;-66
2021/12/04 13:16:30;;;;;;;20.17;7.45;;;;;;;-11.55;72.73;100449.97;5064084;28;20083;-66
2021/12/04 13:19:04;;;;;;;13.60;6.30;;;;;;;-11.63;73.78;100466.16;5063149;28;20055;-66
2021/12/04 13:21:36;;;;;;;6.60;4.00;;;;;;;-11.62;73.69;100462.91;5059006;28;20057;-65
2021/12/04 13:24:10;;;;;;;6.40;3.97;;;;;;;-11.62;73.94;100462.91;5063278;28;20073;-66
2021/12/04 13:26:40;;;;;;;4.75;3.42;;;;;;;-11.75;74.09;100451.88;5063459;28;20068;-66
2021/12/04 13:29:12;;;;;;;10.63;5.57;;;;;;;-11.86;74.26;100467.84;5063703;28;20037;-65
2021/12/04 13:31:41;;;;;;;10.65;5.00;;;;;;;-12.08;74.99;100456.91;5063748;28;20103;-66
2021/12/04 13:34:12;;;;;;;10.95;5.25;;;;;;;-12.17;75.58;100455.47;5063650;28;20040;-66
2021/12/04 13:36:42;;;;;;;5.57;4.13;;;;;;;-12.45;75.69;100442.41;5063469;28;20052;-66
2021/12/04 13:39:14;;;;;;;10.27;3.67;;;;;;;-12.49;76.27;100452.09;5063489;28;20037;-65
2021/12/04 13:41:46;;;;;;;6.35;3.85;;;;;;;-12.55;76.34;100454.13;5063891;28;20049;-66
2021/12/04 13:44:17;;;;;;;4.63;3.50;;;;;;;-12.52;76.78;100444.31;5064309;28;20076;-65
2021/12/04 13:46:48;;;;;;;8.98;5.28;;;;;;;-12.47;76.50;100453.13;5065641;28;21114;-65
2021/12/04 13:49:19;;;;;;;17.83;10.65;;;;;;;-12.44;76.35;100473.47;5066238;28;20057;-65
2021/12/04 13:51:53;;;;;;;15.63;8.05;;;;;;;-12.64;76.53;100450.16;5066966;28;20048;-65
2021/12/04 13:54:24;;;;;;;126.90;35.22;;;;;;;-12.55;76.53;100474.25;5067331;28;20049;-66
2021/12/04 13:56:53;;;;;;;159.35;52.72;;;;;;;-12.66;76.58;100481.84;5067407;28;20167;-65
2021/12/04 13:59:24;;;;;;;131.18;49.55;;;;;;;-12.77;76.97;100482.66;5067395;28;20111;-65
2021/12/04 14:01:54;;;;;;;146.20;59.33;;;;;;;-12.86;76.95;100476.88;5065077;28;20115;-65
2021/12/04 14:04:22;;;;;;;;;;;;;;;-13.00;76.93;100487.47;5067523;28;20112;-65
2021/12/04 14:06:53;;;;;;;38.30;19.10;;;;;;;-13.23;77.15;100463.88;5064389;28;19916;-65
2021/12/04 14:09:25;;;;;;;41.15;21.60;;;;;;;-13.20;77.18;100481.75;5066695;28;20048;-66